createdAt,value
2023-01-27T00:01:00.176Z,87.69
2023-01-27T00:03:27.797Z,87.77
2023-01-27T00:05:56.214Z,87.92
2023-01-27T00:08:23.791Z,87.54
2023-01-27T00:11:11.568Z,88.15
2023-01-27T00:13:39.539Z,88.16
2023-01-27T00:16:08.099Z,87.12
2023-01-27T00:18:35.722Z,87.80
2023-01-27T00:21:21.011Z,87.44
2023-01-27T00:24:06.510Z,87.75
2023-01-27T00:26:35.105Z,87.14
2023-01-27T00:29:04.093Z,87.42
2023-01-27T00:31:50.583Z,86.89
2023-01-27T00:34:18.330Z,87.41
2023-01-27T00:36:46.254Z,87.13
2023-01-27T00:39:14.380Z,86.61
2023-01-27T00:41:47.283Z,87.11
2023-01-27T00:44:16.254Z,86.68
2023-01-27T00:46:44.578Z,87.49
2023-01-27T00:49:13.417Z,87.47
2023-01-27T00:51:41.537Z,86.44
2023-01-27T00:54:10.005Z,85.86
2023-01-27T00:56:39.165Z,86.00
2023-01-27T00:59:07.826Z,85.79
2023-01-27T01:01:37.801Z,85.67
2023-01-27T01:04:05.785Z,86.10
2023-01-27T01:06:33.594Z,85.72
2023-01-27T01:09:01.195Z,86.50
2023-01-27T01:11:29.165Z,87.15
2023-01-27T01:13:59.581Z,86.99
2023-01-27T01:16:27.891Z,87.43
2023-01-27T01:18:58.668Z,87.19
2023-01-27T01:21:26.770Z,87.45
2023-01-27T01:23:54.435Z,88.05
2023-01-27T01:26:22.857Z,87.70
2023-01-27T01:28:50.461Z,87.74
2023-01-27T01:31:21.008Z,87.36
2023-01-27T01:33:49.175Z,86.71
2023-01-27T01:36:21.828Z,86.70
2023-01-27T01:38:49.935Z,87.55
2023-01-27T01:41:20.186Z,86.76
2023-01-27T01:43:48.191Z,86.37
2023-01-27T01:46:16.718Z,86.89
2023-01-27T01:48:48.009Z,86.55
2023-01-27T01:51:20.846Z,86.66
2023-01-27T01:53:57.632Z,86.68
2023-01-27T01:56:30.813Z,86.34
2023-01-27T01:59:03.394Z,86.54
2023-01-27T02:01:31.924Z,86.50
2023-01-27T02:04:03.668Z,86.62
2023-01-27T02:06:40.780Z,86.81
2023-01-27T02:09:08.793Z,87.20
2023-01-27T02:11:37.973Z,86.86
2023-01-27T02:14:05.601Z,87.17
2023-01-27T02:16:36.290Z,86.04
2023-01-27T02:19:04.523Z,86.71
2023-01-27T02:21:36.545Z,86.35
2023-01-27T02:24:10.825Z,86.83
2023-01-27T02:26:43.844Z,86.53
2023-01-27T02:29:14.413Z,86.35
2023-01-27T02:31:43.587Z,86.95
2023-01-27T02:34:15.451Z,86.78
2023-01-27T02:36:48.097Z,87.17
2023-01-27T02:39:19.546Z,86.82
2023-01-27T02:41:52.179Z,86.67
2023-01-27T02:44:20.833Z,86.79
2023-01-27T02:46:48.834Z,86.66
2023-01-27T02:49:16.880Z,86.85
2023-01-27T02:51:45.591Z,86.16
2023-01-27T02:54:13.333Z,87.16
2023-01-27T02:56:43.491Z,86.87
2023-01-27T02:59:15.863Z,86.71
2023-01-27T03:01:44.466Z,86.03
2023-01-27T03:04:12.656Z,86.69
2023-01-27T03:06:40.611Z,86.74
2023-01-27T03:09:08.548Z,86.47
2023-01-27T03:11:55.889Z,86.78
2023-01-27T03:14:43.274Z,86.59
2023-01-27T03:17:29.223Z,86.64
2023-01-27T03:19:57.976Z,86.69
2023-01-27T03:22:27.153Z,86.94
2023-01-27T03:24:57.341Z,86.93
2023-01-27T03:27:26.154Z,86.85
2023-01-27T03:30:15.262Z,86.67
2023-01-27T03:32:53.679Z,87.04
2023-01-27T03:35:49.225Z,87.07
2023-01-27T03:38:39.995Z,86.70
2023-01-27T03:41:25.263Z,86.05
2023-01-27T03:44:11.138Z,86.25
2023-01-27T03:46:41.297Z,86.68
2023-01-27T03:49:09.188Z,86.41
2023-01-27T03:51:36.787Z,86.28
2023-01-27T03:54:04.761Z,86.29
2023-01-27T03:56:32.389Z,86.31
2023-01-27T03:59:00.119Z,87.06
2023-01-27T04:01:27.815Z,86.45
2023-01-27T04:04:14.589Z,86.98
2023-01-27T04:06:56.995Z,86.16
2023-01-27T04:09:27.171Z,86.30
2023-01-27T04:11:56.613Z,86.59
2023-01-27T04:14:26.547Z,86.41
2023-01-27T04:16:56.790Z,87.02
2023-01-27T04:19:25.876Z,86.53
2023-01-27T04:21:54.194Z,86.50
2023-01-27T04:24:25.402Z,86.65
2023-01-27T04:26:55.869Z,86.79
2023-01-27T04:29:25.380Z,86.44
2023-01-27T04:31:53.123Z,87.10
2023-01-27T04:34:21.676Z,86.67
2023-01-27T04:36:50.827Z,86.95
2023-01-27T04:39:20.140Z,87.35
2023-01-27T04:41:49.083Z,86.48
2023-01-27T04:44:20.100Z,86.43
2023-01-27T04:46:47.812Z,86.87
2023-01-27T04:49:15.987Z,87.30
2023-01-27T04:51:45.609Z,86.81
2023-01-27T04:54:16.199Z,87.57
2023-01-27T04:56:55.610Z,87.49
2023-01-27T04:59:24.029Z,86.48
2023-01-27T05:01:52.103Z,86.92
2023-01-27T05:04:20.366Z,86.70
2023-01-27T05:06:48.056Z,87.05
2023-01-27T05:09:17.730Z,87.13
2023-01-27T05:11:45.306Z,87.00
2023-01-27T05:14:14.028Z,86.52
2023-01-27T05:16:41.685Z,86.48
2023-01-27T05:19:09.550Z,86.80
2023-01-27T05:21:37.394Z,86.88
2023-01-27T05:24:06.477Z,87.22
2023-01-27T05:26:35.489Z,87.11
2023-01-27T05:29:04.304Z,86.78
2023-01-27T05:31:32.459Z,86.42
2023-01-27T05:34:03.875Z,86.61
2023-01-27T05:36:31.798Z,87.02
2023-01-27T05:39:00.724Z,86.77
2023-01-27T05:41:30.965Z,87.01
2023-01-27T05:44:01.033Z,86.67
2023-01-27T05:46:30.553Z,86.24
2023-01-27T05:49:01.377Z,86.61
2023-01-27T05:51:32.371Z,86.43
2023-01-27T05:54:00.020Z,86.01
2023-01-27T05:56:28.220Z,86.63
2023-01-27T05:58:56.722Z,87.02
2023-01-27T06:01:28.583Z,86.74
2023-01-27T06:03:56.759Z,87.15
2023-01-27T06:06:26.594Z,86.68
2023-01-27T06:08:54.430Z,86.79
2023-01-27T06:11:24.195Z,87.21
2023-01-27T06:13:54.244Z,87.90
2023-01-27T06:16:23.651Z,87.84
2023-01-27T06:18:52.817Z,87.23
2023-01-27T06:21:21.269Z,87.09
2023-01-27T06:23:49.606Z,87.50
2023-01-27T06:26:19.422Z,87.81
2023-01-27T06:28:47.297Z,88.10
2023-01-27T06:31:18.555Z,87.53
2023-01-27T06:33:46.435Z,87.75
2023-01-27T06:36:17.495Z,88.04
2023-01-27T06:38:45.666Z,88.05
2023-01-27T06:41:13.541Z,87.69
2023-01-27T06:43:41.250Z,87.04
2023-01-27T06:46:09.824Z,86.64
2023-01-27T06:48:37.916Z,86.60
2023-01-27T06:51:07.287Z,86.46
2023-01-27T06:53:37.426Z,86.69
2023-01-27T06:56:06.083Z,87.06
2023-01-27T06:58:33.736Z,86.90
2023-01-27T07:01:02.764Z,86.77
2023-01-27T07:03:31.028Z,86.28
2023-01-27T07:05:58.845Z,85.36
2023-01-27T07:08:26.551Z,85.67
2023-01-27T07:10:55.602Z,86.00
2023-01-27T07:13:23.444Z,85.94
2023-01-27T07:15:55.664Z,85.97
2023-01-27T07:18:23.459Z,85.78
2023-01-27T07:20:51.093Z,85.78
2023-01-27T07:23:18.764Z,86.10
2023-01-27T07:25:46.954Z,85.91
2023-01-27T07:28:15.882Z,86.24
2023-01-27T07:30:44.366Z,86.51
2023-01-27T07:33:14.433Z,86.56
2023-01-27T07:35:43.144Z,85.58
2023-01-27T07:38:11.047Z,85.04
2023-01-27T07:40:38.949Z,86.33
2023-01-27T07:43:07.073Z,85.64
2023-01-27T07:45:37.262Z,85.83
2023-01-27T07:48:08.435Z,85.61
2023-01-27T07:50:36.444Z,85.12
2023-01-27T07:53:06.660Z,85.60
2023-01-27T07:55:34.916Z,85.79
2023-01-27T07:58:03.271Z,86.01
2023-01-27T08:00:31.274Z,85.86
2023-01-27T08:03:02.376Z,85.99
2023-01-27T08:05:33.056Z,85.27
2023-01-27T08:08:04.137Z,84.67
2023-01-27T08:10:32.472Z,85.28
2023-01-27T08:13:00.413Z,84.74
2023-01-27T08:15:28.107Z,85.60
2023-01-27T08:17:57.263Z,85.49
2023-01-27T08:20:28.290Z,85.72
2023-01-27T08:22:56.053Z,85.17
2023-01-27T08:25:24.039Z,85.51
2023-01-27T08:27:53.113Z,85.59
2023-01-27T08:30:21.297Z,85.28
2023-01-27T08:32:49.570Z,85.01
2023-01-27T08:35:17.393Z,84.71
2023-01-27T08:37:48.412Z,85.24
2023-01-27T08:40:16.863Z,85.83
2023-01-27T08:42:44.840Z,85.94
2023-01-27T08:45:12.906Z,85.76
2023-01-27T08:47:40.686Z,85.53
2023-01-27T08:50:09.791Z,86.03
2023-01-27T08:52:39.809Z,85.28
2023-01-27T08:55:09.073Z,85.13
2023-01-27T08:57:37.335Z,85.44
2023-01-27T09:00:07.163Z,85.36
2023-01-27T09:02:35.851Z,85.35
2023-01-27T09:05:03.498Z,85.10
2023-01-27T09:07:31.468Z,84.46
2023-01-27T09:10:13.124Z,84.34
2023-01-27T09:12:45.018Z,84.55
2023-01-27T09:15:13.445Z,84.43
2023-01-27T09:17:42.467Z,83.98
2023-01-27T09:20:11.796Z,83.76
2023-01-27T09:22:41.511Z,84.01
2023-01-27T09:25:12.971Z,83.94
2023-01-27T09:27:42.871Z,83.30
2023-01-27T09:30:12.878Z,84.08
2023-01-27T09:32:41.143Z,83.88
2023-01-27T09:35:10.067Z,82.99
2023-01-27T09:37:43.757Z,82.92
2023-01-27T09:40:22.873Z,83.28
2023-01-27T09:43:12.354Z,82.70
2023-01-27T09:46:12.646Z,83.94
2023-01-27T09:48:58.980Z,83.76
2023-01-27T09:51:34.350Z,83.26
2023-01-27T09:54:18.890Z,83.73
2023-01-27T09:56:58.488Z,83.35
2023-01-27T09:59:53.151Z,83.71
2023-01-27T10:02:33.198Z,83.77
2023-01-27T10:05:24.668Z,82.69
2023-01-27T10:08:12.731Z,83.14
2023-01-27T10:11:04.867Z,83.03
2023-01-27T10:13:45.378Z,82.76
2023-01-27T10:16:27.984Z,83.82
2023-01-27T10:19:07.502Z,83.19
2023-01-27T10:21:44.035Z,82.70
2023-01-27T10:24:20.351Z,83.06
2023-01-27T10:26:51.308Z,82.35
2023-01-27T10:29:25.254Z,82.21
2023-01-27T10:31:58.502Z,82.68
2023-01-27T10:34:29.978Z,81.76
2023-01-27T10:37:10.183Z,81.50
2023-01-27T10:39:47.056Z,81.85
2023-01-27T10:42:25.866Z,80.98
2023-01-27T10:45:12.103Z,81.28
2023-01-27T10:47:57.274Z,81.29
2023-01-27T10:50:32.038Z,80.78
2023-01-27T10:53:05.009Z,79.80
2023-01-27T10:55:42.731Z,80.35
2023-01-27T10:58:14.623Z,80.16
2023-01-27T11:01:18.881Z,80.23
2023-01-27T11:03:41.156Z,79.85
2023-01-27T11:06:13.849Z,79.94
2023-01-27T11:08:46.642Z,79.77
2023-01-27T11:11:34.934Z,79.37
2023-01-27T11:14:12.541Z,79.60
2023-01-27T11:16:43.876Z,79.67
2023-01-27T11:19:23.897Z,78.81
2023-01-27T11:22:06.571Z,78.69
2023-01-27T11:24:44.662Z,78.88
2023-01-27T11:27:19.854Z,78.57
2023-01-27T11:29:53.710Z,79.27
2023-01-27T11:32:31.846Z,78.76
2023-01-27T11:35:05.208Z,79.27
2023-01-27T11:37:36.523Z,79.18
2023-01-27T11:40:08.115Z,79.92
2023-01-27T11:42:36.265Z,79.30
2023-01-27T11:45:05.153Z,78.67
2023-01-27T11:47:37.743Z,79.04
2023-01-27T11:50:08.830Z,79.39
2023-01-27T11:52:36.499Z,79.16
2023-01-27T11:55:09.275Z,79.48
2023-01-27T11:57:42.342Z,79.64
2023-01-27T12:00:21.369Z,79.23
2023-01-27T12:02:56.246Z,78.92
2023-01-27T12:05:32.566Z,78.48
2023-01-27T12:08:02.747Z,78.41
2023-01-27T12:10:34.195Z,78.48
2023-01-27T12:13:08.241Z,78.06
2023-01-27T12:15:37.553Z,78.72
2023-01-27T12:18:12.218Z,78.72
2023-01-27T12:20:45.576Z,79.01
2023-01-27T12:23:22.569Z,79.07
2023-01-27T12:25:55.265Z,79.74
2023-01-27T12:28:28.958Z,79.27
2023-01-27T12:31:04.158Z,79.42
2023-01-27T12:33:34.465Z,80.62
2023-01-27T12:36:17.719Z,80.19
2023-01-27T12:38:49.990Z,79.90
2023-01-27T12:41:24.951Z,80.11
2023-01-27T12:43:55.558Z,80.52
2023-01-27T12:46:25.733Z,80.66
2023-01-27T12:48:55.162Z,79.46
2023-01-27T12:51:39.972Z,79.95
2023-01-27T12:54:21.761Z,79.86
2023-01-27T12:56:50.914Z,79.99
2023-01-27T12:59:22.289Z,79.85
2023-01-27T13:02:03.398Z,80.31
2023-01-27T13:04:32.206Z,80.52
2023-01-27T13:07:09.067Z,80.03
2023-01-27T13:09:39.857Z,80.18
2023-01-27T13:12:18.003Z,79.90
2023-01-27T13:14:45.771Z,80.24
2023-01-27T13:17:38.373Z,80.10
2023-01-27T13:20:16.772Z,79.78
2023-01-27T13:22:48.906Z,79.19
2023-01-27T13:25:20.449Z,78.61
2023-01-27T13:27:50.409Z,78.62
2023-01-27T13:30:27.425Z,78.04
2023-01-27T13:33:00.505Z,78.40
2023-01-27T13:35:34.186Z,78.63
2023-01-27T13:38:11.095Z,78.17
2023-01-27T13:40:44.003Z,78.12
2023-01-27T13:43:19.962Z,78.79
2023-01-27T13:45:54.677Z,78.62
2023-01-27T13:48:29.296Z,78.75
2023-01-27T13:51:04.619Z,79.13
2023-01-27T13:53:34.315Z,79.03
2023-01-27T13:56:22.263Z,79.44
2023-01-27T13:59:02.968Z,80.03
2023-01-27T14:01:45.313Z,79.44
2023-01-27T14:04:39.710Z,79.69
2023-01-27T14:07:20.038Z,80.38
2023-01-27T14:10:01.937Z,79.70
2023-01-27T14:12:44.720Z,80.45
2023-01-27T14:15:24.219Z,79.53
2023-01-27T14:17:58.947Z,80.07
2023-01-27T14:20:38.305Z,80.25
2023-01-27T14:23:21.274Z,80.29
2023-01-27T14:26:00.705Z,80.40
2023-01-27T14:28:38.530Z,80.52
2023-01-27T14:31:14.081Z,80.57
2023-01-27T14:33:56.408Z,79.59
2023-01-27T14:36:29.360Z,80.14
2023-01-27T14:39:04.823Z,80.30
2023-01-27T14:41:40.965Z,80.38
2023-01-27T14:44:18.604Z,81.29
2023-01-27T14:46:59.841Z,80.51
2023-01-27T14:49:41.076Z,80.93
2023-01-27T14:52:19.646Z,80.31
2023-01-27T14:55:04.676Z,80.39
2023-01-27T14:57:42.240Z,81.11
2023-01-27T15:00:30.750Z,81.15
2023-01-27T15:03:13.116Z,80.84
2023-01-27T15:05:51.091Z,81.31
2023-01-27T15:08:25.663Z,81.18
2023-01-27T15:11:04.733Z,81.68
2023-01-27T15:13:57.254Z,81.88
2023-01-27T15:16:44.056Z,81.89
2023-01-27T15:19:28.860Z,81.84
2023-01-27T15:22:31.013Z,82.38
2023-01-27T15:25:12.582Z,82.61
2023-01-27T15:27:41.858Z,81.81
2023-01-27T15:30:23.257Z,82.09
2023-01-27T15:32:51.577Z,81.49
2023-01-27T15:35:33.442Z,81.81
2023-01-27T15:38:14.773Z,82.10
2023-01-27T15:40:58.050Z,82.22
2023-01-27T15:43:26.263Z,82.72
2023-01-27T15:45:58.163Z,82.78
2023-01-27T15:48:32.851Z,82.64
2023-01-27T15:51:05.242Z,82.41
2023-01-27T15:53:36.187Z,83.62
2023-01-27T15:56:05.241Z,82.91
2023-01-27T15:58:36.130Z,82.72
2023-01-27T16:01:09.443Z,83.93
2023-01-27T16:03:43.599Z,83.00
2023-01-27T16:06:18.082Z,84.13
2023-01-27T16:08:50.652Z,83.81
2023-01-27T16:11:41.832Z,83.37
2023-01-27T16:14:38.253Z,83.47
2023-01-27T16:17:18.406Z,84.46
2023-01-27T16:19:53.920Z,83.80
2023-01-27T16:22:23.540Z,83.88
2023-01-27T16:24:57.124Z,84.03
2023-01-27T16:27:37.114Z,83.62
2023-01-27T16:30:15.002Z,84.27
2023-01-27T16:32:55.311Z,84.07
2023-01-27T16:35:23.660Z,84.50
2023-01-27T16:38:03.799Z,84.40
2023-01-27T16:40:34.387Z,84.44
2023-01-27T16:43:07.096Z,84.21
2023-01-27T16:45:44.683Z,84.74
2023-01-27T16:48:25.396Z,84.91
2023-01-27T16:50:54.280Z,85.31
2023-01-27T16:53:25.863Z,84.43
2023-01-27T16:55:58.040Z,84.76
2023-01-27T16:58:39.827Z,85.08
2023-01-27T17:01:21.126Z,84.80
2023-01-27T17:03:54.001Z,84.72
2023-01-27T17:06:22.988Z,85.26
2023-01-27T17:08:51.004Z,85.45
2023-01-27T17:11:25.065Z,85.53
2023-01-27T17:13:59.461Z,85.70
2023-01-27T17:16:29.953Z,85.54
2023-01-27T17:19:07.859Z,85.77
2023-01-27T17:21:38.839Z,85.62
2023-01-27T17:24:16.124Z,85.19
2023-01-27T17:26:46.308Z,85.28
2023-01-27T17:29:19.544Z,86.15
2023-01-27T17:31:47.363Z,85.39
2023-01-27T17:34:21.082Z,85.83
2023-01-27T17:37:09.023Z,86.11
2023-01-27T17:39:38.744Z,85.68
2023-01-27T17:42:06.526Z,86.21
2023-01-27T17:44:34.794Z,86.72
2023-01-27T17:47:03.291Z,86.40
2023-01-27T17:49:32.964Z,86.28
2023-01-27T17:52:02.185Z,86.14
2023-01-27T17:54:32.553Z,86.79
2023-01-27T17:57:08.126Z,87.46
2023-01-27T17:59:38.982Z,86.99
2023-01-27T18:02:16.456Z,86.82
2023-01-27T18:04:46.767Z,86.97
2023-01-27T18:07:14.344Z,87.16
2023-01-27T18:09:46.726Z,86.95
2023-01-27T18:12:29.654Z,87.16
2023-01-27T18:14:57.479Z,86.79
2023-01-27T18:17:27.810Z,86.71
2023-01-27T18:19:58.089Z,86.84
2023-01-27T18:22:27.022Z,86.42
2023-01-27T18:24:59.843Z,86.61
2023-01-27T18:27:30.927Z,86.63
2023-01-27T18:30:02.860Z,86.87
2023-01-27T18:32:40.126Z,86.40
2023-01-27T18:35:27.915Z,86.49
2023-01-27T18:37:58.449Z,86.02
2023-01-27T18:40:29.771Z,86.95
2023-01-27T18:42:58.776Z,86.04
2023-01-27T18:45:28.462Z,86.67
2023-01-27T18:47:56.450Z,86.52
2023-01-27T18:50:27.165Z,86.29
2023-01-27T18:52:55.391Z,86.37
2023-01-27T18:55:26.328Z,85.69
2023-01-27T18:57:55.671Z,85.89
2023-01-27T19:00:25.864Z,85.13
2023-01-27T19:02:57.059Z,85.55
2023-01-27T19:05:28.554Z,85.65
2023-01-27T19:07:56.237Z,86.42
2023-01-27T19:10:26.232Z,86.38
2023-01-27T19:12:54.174Z,85.89
2023-01-27T19:15:23.939Z,86.65
2023-01-27T19:17:54.297Z,85.79
2023-01-27T19:20:24.183Z,85.79
2023-01-27T19:22:54.355Z,86.27
2023-01-27T19:25:23.823Z,86.65
2023-01-27T19:27:55.464Z,85.91
2023-01-27T19:30:28.945Z,85.78
2023-01-27T19:32:57.917Z,86.31
2023-01-27T19:35:27.756Z,86.59
2023-01-27T19:37:57.824Z,86.41
2023-01-27T19:40:28.461Z,86.42
2023-01-27T19:42:56.329Z,86.36
2023-01-27T19:45:24.945Z,85.80
2023-01-27T19:47:52.942Z,85.90
2023-01-27T19:50:23.548Z,85.50
2023-01-27T19:52:51.471Z,85.76
2023-01-27T19:55:22.238Z,85.81
2023-01-27T19:57:51.318Z,85.69
2023-01-27T20:00:26.762Z,86.55
2023-01-27T20:02:56.487Z,86.59
2023-01-27T20:05:25.200Z,85.92
2023-01-27T20:07:54.410Z,86.20
2023-01-27T20:10:25.682Z,86.75
2023-01-27T20:12:55.606Z,86.58
2023-01-27T20:15:25.216Z,85.99
2023-01-27T20:17:53.379Z,86.73
2023-01-27T20:20:21.603Z,86.52
2023-01-27T20:22:49.539Z,87.21
2023-01-27T20:25:19.608Z,86.37
2023-01-27T20:27:53.008Z,87.01
2023-01-27T20:30:21.837Z,86.82
2023-01-27T20:32:49.705Z,87.07
2023-01-27T20:35:19.350Z,85.87
2023-01-27T20:37:48.259Z,87.03
2023-01-27T20:40:17.637Z,86.23
2023-01-27T20:42:45.919Z,87.34
2023-01-27T20:45:15.834Z,87.50
2023-01-27T20:47:44.304Z,87.39
2023-01-27T20:50:12.628Z,87.39
2023-01-27T20:52:40.421Z,87.32
2023-01-27T20:55:09.552Z,87.56
2023-01-27T20:57:38.208Z,87.65
2023-01-27T21:00:06.788Z,87.71
2023-01-27T21:02:36.139Z,87.13
2023-01-27T21:05:03.873Z,87.92
2023-01-27T21:07:32.162Z,87.90
2023-01-27T21:09:59.765Z,87.80
2023-01-27T21:12:29.520Z,88.20
2023-01-27T21:15:01.584Z,87.73
2023-01-27T21:17:29.648Z,88.17
2023-01-27T21:19:58.590Z,87.57
2023-01-27T21:22:26.187Z,88.06
2023-01-27T21:24:54.057Z,87.77
2023-01-27T21:27:22.092Z,87.72
2023-01-27T21:29:50.646Z,87.92
2023-01-27T21:32:18.236Z,87.56
2023-01-27T21:34:47.887Z,87.62
2023-01-27T21:37:17.424Z,87.14
2023-01-27T21:39:45.174Z,86.60
2023-01-27T21:42:32.300Z,87.17
2023-01-27T21:45:16.471Z,87.72
2023-01-27T21:47:44.570Z,87.10
2023-01-27T21:50:14.718Z,87.28
2023-01-27T21:52:45.345Z,86.58
2023-01-27T21:55:16.432Z,87.59
2023-01-27T21:57:46.013Z,86.53
2023-01-27T22:00:15.995Z,87.24
2023-01-27T22:02:44.266Z,86.66
2023-01-27T22:05:12.986Z,87.07
2023-01-27T22:07:41.664Z,87.63
2023-01-27T22:10:15.229Z,86.90
2023-01-27T22:12:43.387Z,87.59
2023-01-27T22:15:12.357Z,86.94
2023-01-27T22:17:40.136Z,87.78
2023-01-27T22:20:09.240Z,88.04
2023-01-27T22:22:36.804Z,88.20
2023-01-27T22:25:04.774Z,87.68
2023-01-27T22:27:34.170Z,87.72
2023-01-27T22:30:01.976Z,87.95
2023-01-27T22:32:29.618Z,87.73
2023-01-27T22:34:57.436Z,88.12
2023-01-27T22:37:25.026Z,88.42
2023-01-27T22:39:52.615Z,87.79
2023-01-27T22:42:20.246Z,87.78
2023-01-27T22:44:49.496Z,88.36
2023-01-27T22:47:17.120Z,87.92
2023-01-27T22:49:44.756Z,89.10
2023-01-27T22:52:12.421Z,88.20
2023-01-27T22:54:39.998Z,88.14
2023-01-27T22:57:07.590Z,88.68
2023-01-27T22:59:35.894Z,89.15
2023-01-27T23:02:04.909Z,89.09
2023-01-27T23:04:32.657Z,89.06
2023-01-27T23:07:00.256Z,88.61
2023-01-27T23:09:27.831Z,89.01
2023-01-27T23:11:56.413Z,89.13
2023-01-27T23:14:24.358Z,88.67
2023-01-27T23:16:52.874Z,89.07
2023-01-27T23:19:22.061Z,88.68
2023-01-27T23:21:49.871Z,88.72
2023-01-27T23:24:17.556Z,88.89
2023-01-27T23:26:45.296Z,89.05
2023-01-27T23:29:24.337Z,88.85
2023-01-27T23:31:53.233Z,88.20
2023-01-27T23:34:23.392Z,89.02
2023-01-27T23:36:50.988Z,87.98
2023-01-27T23:39:18.679Z,88.79
2023-01-27T23:41:46.266Z,88.80
2023-01-27T23:44:14.216Z,88.34
2023-01-27T23:46:43.266Z,88.63
2023-01-27T23:49:11.857Z,87.86
2023-01-27T23:51:40.832Z,88.44
2023-01-27T23:54:08.899Z,88.34
2023-01-27T23:56:36.513Z,87.69
2023-01-27T23:59:04.403Z,87.79
